CheckWX is a tool to help pilots better visualize weather data.  It is not intended as a substitute for an official pre-flight weather briefing.

10:55:55 UTC

KCMA METAR
Camarillo Airport
Camarillo, California, USA
Current

1 hour ago

KCMA 260955Z 05004KT 10SM CLR 15/M09 A3024 RMK AO2 SLP250 T01501094
Observed
Feb-26 @ 09:55 UTC
Wind
  • 050° at 4 KTS
Visibility
10 SM
Flight Rules
VFR
Cloud Levels
  • Clear skies
Temperature
15°C / 59°F
Dewpoint
-9°C / 16°F
Humidity
18%
Altimeter
30.24" Hg
Pressure
1024.02 hPa
Previous

2 hours ago

KCMA 260855Z 10007KT 10SM CLR 17/M09 A3025 RMK AO2 SLP250 T01671094 51008
Observed
Feb-26 @ 08:55 UTC
Wind
  • 100° at 7 KTS
Visibility
10 SM
Flight Rules
VFR
Cloud Levels
  • Clear skies
Temperature
17°C / 63°F
Dewpoint
-9°C / 16°F
Humidity
16%
Altimeter
30.25" Hg
Pressure
1024.42 hPa
Previous

3 hours ago

KCMA 260755Z 09012KT 10SM CLR 20/M11 A3025 RMK AO2 SLP249 T02001111 402940078
Observed
Feb-26 @ 07:55 UTC
Wind
  • 090° at 12 KTS
Visibility
10 SM
Flight Rules
VFR
Cloud Levels
  • Clear skies
Temperature
20°C / 68°F
Dewpoint
-11°C / 12°F
Humidity
11%
Altimeter
30.25" Hg
Pressure
1024.42 hPa